Radar AviationWeather DUATS TFRs Wunderground Accuweather Weather.com

Radar

TAFs

KCLE 092152Z 0922/1024 20012KT P6SM SCT012 OVC020
   FM100100 22012KT P6SM VCSH OVC010
   FM100600 25015G25KT P6SM OVC015
   FM101300 28012G20KT P6SM OVC020
   FM102000 28009KT P6SM OVC040
KFDY 092149Z 0922/1018 22010KT P6SM OVC010
   FM100000 22010KT P6SM VCSH OVC008
   FM100200 24012G20KT P6SM OVC010
   FM100900 28015G25KT P6SM OVC025
   FM101300 27012G20KT P6SM OVC015
KTOL 092147Z 0922/1018 23010KT P6SM OVC010
   FM100000 22010G18KT P6SM VCSH OVC008
   FM100300 25015G25KT P6SM OVC015
   FM101400 27012KT P6SM BKN025
KDTW 092044Z 0921/1024 22012G22KT P6SM -DZ OVC007
   FM092300 23012G20KT 5SM -DZ BR BKN008 OVC018
   FM100400 26014G26KT P6SM OVC022
   FM100700 27015G26KT P6SM BKN028 OVC040
   FM101200 29012G22KT P6SM OVC045
   FM101900 27014KT P6SM BKN045
KJXN 091753Z 0918/1018 20012G20KT 6SM -RA OVC007
   FM092200 22012G22KT 6SM -RA OVC006
   FM100000 25020G30KT 5SM -RA BR OVC007
   FM100300 27020G30KT 5SM -RASN BR OVC009
   FM100600 28014G24KT 6SM -SHSN OVC015
   FM101200 28012G22KT 6SM -SHSN OVC025
KFWA 091731Z 0918/1018 23012KT 5SM -RA OVC008
     TEMPO 0918/0921 2SM -DZ OVC005
   FM100100 27018G28KT P6SM -DZ OVC010
   FM100700 27016G25KT P6SM OVC020
   FM101400 27013G21KT P6SM SCT030

METARs

KTDZ 092205Z AUTO 22008KT 10SM FEW010 BKN038 OVC060 11/09 A2950 RMK AO2 T01060094
KJXN 092156Z 20013G20KT 9SM OVC011 09/07 A2943 RMK AO2 SLP969 T00940072
KDUH 092155Z AUTO 23007KT 10SM BKN009 OVC013 11/09 A2948 RMK AO2 T01050090
KFWA 092154Z 24012KT 8SM -DZ OVC008 10/09 A2951 RMK AO2 RAE07DZB51 CIG 007V012 SLP995 P0000 T01000089
KDTW 092153Z 22016KT 9SM OVC014 11/08 A2946 RMK AO2 SLP976 T01060083 $
KFDY 092153Z AUTO 22008KT 10SM BKN012 OVC023 12/11 A2950 RMK AO2 SLP988 T01220106
KTOL 092152Z 22012KT 10SM BKN010 OVC015 11/09 A2948 RMK AO2 SLP984 T01110089
KCLE 092151Z 21011KT 10SM FEW013 BKN020 OVC026 12/10 A2953 RMK AO2 RAE34 SLP001 P0004 T01170100

Satellite

TFRs